Time;durP1;ratioP1;P1;durP2;ratioP2;P2;SDS_P1;SDS_P2;PMS_P1;PMS_P2;Temp;Humidity;BMP_temperature;BMP_pressure;BME280_temperature;BME280_humidity;BME280_pressure;Samples;Min_cycle;Max_cycle;Signal;HPM_P1;HPM_P2
2020/12/24 00:01:21;;;;;;;10.15;2.17;;;9.90;54.20;;;;;;5034243;28;20407;-72
2020/12/24 00:03:46;;;;;;;10.23;2.37;;;9.90;54.60;;;;;;5034546;28;20417;-73
2020/12/24 00:06:12;;;;;;;10.23;2.10;;;9.90;54.00;;;;;;5040796;28;20474;-73
2020/12/24 00:08:37;;;;;;;10.13;2.20;;;9.90;54.60;;;;;;5050375;28;20400;-75
2020/12/24 00:11:04;;;;;;;9.30;2.10;;;9.90;53.70;;;;;;5051699;28;20392;-74
2020/12/24 00:13:29;;;;;;;7.50;2.50;;;9.70;55.00;;;;;;5053083;28;20381;-73
2020/12/24 00:15:55;;;;;;;11.20;2.60;;;9.80;54.20;;;;;;5053160;28;20967;-72
2020/12/24 00:18:21;;;;;;;8.05;2.10;;;9.70;55.60;;;;;;5052450;28;20859;-73
2020/12/24 00:20:48;;;;;;;11.85;2.58;;;9.60;56.00;;;;;;5053107;28;20894;-74
2020/12/24 00:23:13;;;;;;;12.10;2.50;;;9.50;56.70;;;;;;5053171;28;20388;-74
2020/12/24 00:25:39;;;;;;;10.90;2.67;;;9.50;56.40;;;;;;5052859;28;20802;-73
2020/12/24 00:28:06;;;;;;;7.00;2.20;;;9.50;56.30;;;;;;5052288;28;20403;-72
2020/12/24 00:30:31;;;;;;;10.27;2.40;;;9.50;57.00;;;;;;5035078;28;20522;-73
2020/12/24 00:32:57;;;;;;;8.00;2.50;;;9.50;57.00;;;;;;5053822;28;20826;-73
2020/12/24 00:35:22;;;;;;;10.77;2.13;;;9.50;56.90;;;;;;5050762;28;20389;-74
2020/12/24 00:37:48;;;;;;;10.13;2.37;;;9.40;57.50;;;;;;5050174;28;20891;-74
2020/12/24 00:40:13;;;;;;;11.93;2.37;;;9.50;57.80;;;;;;5050598;28;20902;-74
2020/12/24 00:42:39;;;;;;;7.37;2.03;;;9.50;56.80;;;;;;5050289;28;20382;-74
2020/12/24 00:45:04;;;;;;;19.37;3.07;;;9.50;56.20;;;;;;5050519;28;20385;-73
2020/12/24 00:47:30;;;;;;;12.15;3.10;;;9.60;56.60;;;;;;5049928;28;20423;-73
2020/12/24 00:49:55;;;;;;;13.90;2.65;;;9.70;54.60;;;;;;5049923;28;20400;-74
2020/12/24 00:52:21;;;;;;;9.82;2.60;;;9.80;54.00;;;;;;5050356;28;20605;-74
2020/12/24 00:54:46;;;;;;;14.90;2.90;;;9.90;54.00;;;;;;5050129;28;20453;-74
2020/12/24 00:57:12;;;;;;;9.35;2.50;;;9.90;53.10;;;;;;5049760;28;20401;-75
2020/12/24 00:59:37;;;;;;;13.57;2.50;;;9.90;54.10;;;;;;5050075;28;20413;-74
2020/12/24 01:02:03;;;;;;;12.90;2.80;;;9.90;53.20;;;;;;5052504;28;20409;-73
2020/12/24 01:04:29;;;;;;;9.13;2.70;;;9.90;53.70;;;;;;5054061;28;20416;-74
2020/12/24 01:06:54;;;;;;;9.93;2.13;;;9.80;54.50;;;;;;5053084;28;20731;-73
2020/12/24 01:09:20;;;;;;;14.30;3.00;;;9.80;54.40;;;;;;5055674;28;20878;-74
2020/12/24 01:11:46;;;;;;;11.43;2.80;;;9.70;53.80;;;;;;5055475;28;20874;-73
2020/12/24 01:14:11;;;;;;;13.80;2.77;;;9.70;53.30;;;;;;5055923;28;20393;-74
2020/12/24 01:16:37;;;;;;;11.97;2.90;;;9.70;54.20;;;;;;5054264;28;20393;-72
2020/12/24 01:19:02;;;;;;;13.23;2.63;;;9.70;54.00;;;;;;5054025;28;20412;-74
2020/12/24 01:21:29;;;;;;;12.00;3.27;;;9.60;54.30;;;;;;5053476;28;20385;-72
2020/12/24 01:23:55;;;;;;;8.60;2.50;;;9.50;54.60;;;;;;5053801;28;20811;-73
2020/12/24 01:26:21;;;;;;;15.77;2.80;;;9.50;53.70;;;;;;5053812;28;20417;-74
2020/12/24 01:28:46;;;;;;;15.85;3.28;;;9.50;53.60;;;;;;5053323;28;20381;-73
2020/12/24 01:31:12;;;;;;;8.20;2.55;;;9.50;54.00;;;;;;5053668;28;20385;-72
2020/12/24 01:33:37;;;;;;;11.93;3.22;;;9.40;53.50;;;;;;5052929;28;20472;-73
2020/12/24 01:36:03;;;;;;;11.18;2.72;;;9.30;54.00;;;;;;5053312;28;20472;-73
2020/12/24 01:38:29;;;;;;;16.75;2.70;;;9.40;53.90;;;;;;5052375;28;20477;-74
2020/12/24 01:41:02;;;;;;;16.40;2.80;;;9.30;55.10;;;;;;5053358;28;20405;-73
2020/12/24 01:43:28;;;;;;;13.17;2.40;;;9.40;54.00;;;;;;5053151;28;20409;-73
2020/12/24 01:45:55;;;;;;;19.58;3.50;;;9.40;53.80;;;;;;5035357;28;20393;-74
2020/12/24 01:48:21;;;;;;;17.20;2.60;;;9.40;53.80;;;;;;5052344;28;20890;-74
2020/12/24 01:50:47;;;;;;;15.55;3.30;;;9.40;52.70;;;;;;5053215;28;20378;-73
2020/12/24 01:53:24;;;;;;;18.43;3.00;;;9.40;52.80;;;;;;5052539;28;20917;-73
2020/12/24 01:55:51;;;;;;;13.45;2.80;;;9.40;53.20;;;;;;5053236;28;20381;-73
2020/12/24 01:58:17;;;;;;;7.97;2.40;;;9.50;52.80;;;;;;5052679;28;20444;-73
2020/12/24 02:00:47;;;;;;;10.93;3.03;;;9.60;51.80;;;;;;5053141;28;20405;-73
2020/12/24 02:03:16;;;;;;;11.80;2.83;;;9.60;51.90;;;;;;5052569;28;20874;-73
2020/12/24 02:05:43;;;;;;;12.35;2.30;;;9.70;50.50;;;;;;5052994;28;20389;-72
2020/12/24 02:08:10;;;;;;;15.55;2.30;;;9.80;50.00;;;;;;5052472;28;20445;-72
2020/12/24 02:10:35;;;;;;;14.90;3.13;;;9.90;49.60;;;;;;5052757;28;20400;-73
2020/12/24 02:13:01;;;;;;;14.23;2.30;;;10.00;46.90;;;;;;5052104;28;20472;-72
2020/12/24 02:15:27;;;;;;;12.88;2.90;;;10.10;46.80;;;;;;5052922;28;20390;-73
2020/12/24 02:17:52;;;;;;;13.13;3.00;;;10.10;46.70;;;;;;5052289;28;20475;-73
2020/12/24 02:20:18;;;;;;;12.60;2.13;;;10.10;45.00;;;;;;5055742;28;20440;-73
2020/12/24 02:22:43;;;;;;;11.47;2.43;;;10.20;45.10;;;;;;5055146;28;20423;-74
2020/12/24 02:25:09;;;;;;;11.30;2.60;;;10.20;43.90;;;;;;5054025;28;20389;-72
2020/12/24 02:27:34;;;;;;;11.87;2.90;;;10.20;44.40;;;;;;5036011;28;20705;-73
2020/12/24 02:30:01;;;;;;;16.97;2.30;;;10.20;44.40;;;;;;5052979;28;20471;-74
2020/12/24 02:32:31;;;;;;;12.30;2.53;;;10.20;44.10;;;;;;5054022;28;20390;-72
2020/12/24 02:34:56;;;;;;;12.30;2.60;;;10.20;43.60;;;;;;5052781;28;20382;-74
2020/12/24 02:37:25;;;;;;;11.60;2.60;;;10.20;43.80;;;;;;5052126;28;20459;-74
2020/12/24 02:39:51;;;;;;;11.25;2.58;;;10.20;43.70;;;;;;5051676;28;20409;-73
2020/12/24 02:42:18;;;;;;;11.32;2.28;;;10.20;42.40;;;;;;5052348;28;20378;-73
2020/12/24 02:44:43;;;;;;;11.43;2.47;;;10.20;43.60;;;;;;5051885;28;20882;-73
2020/12/24 02:47:10;;;;;;;10.35;2.22;;;10.10;44.50;;;;;;5051867;28;20381;-73
2020/12/24 02:49:36;;;;;;;7.40;2.40;;;10.10;43.90;;;;;;5051951;28;20389;-73
2020/12/24 02:52:02;;;;;;;15.00;2.60;;;10.10;43.20;;;;;;5052237;28;20413;-74
2020/12/24 02:54:28;;;;;;;11.50;2.50;;;10.10;43.40;;;;;;5051712;28;20419;-74
2020/12/24 02:56:53;;;;;;;14.77;2.30;;;10.20;44.60;;;;;;5051730;28;20464;-73
2020/12/24 02:59:19;;;;;;;11.60;3.00;;;10.20;43.70;;;;;;5051713;28;20492;-74
2020/12/24 03:01:44;;;;;;;10.50;2.60;;;10.20;42.10;;;;;;5051667;28;20385;-74
2020/12/24 03:04:10;;;;;;;13.27;2.60;;;10.30;42.10;;;;;;5052129;28;20889;-74
2020/12/24 03:06:35;;;;;;;9.50;2.17;;;10.20;42.80;;;;;;5045834;28;20751;-73
2020/12/24 03:09:01;;;;;;;9.03;2.20;;;10.20;43.40;;;;;;5051466;28;20393;-73
2020/12/24 03:11:26;;;;;;;13.80;2.80;;;10.10;43.00;;;;;;5051461;28;20751;-73
2020/12/24 03:13:52;;;;;;;7.82;2.15;;;10.20;42.90;;;;;;5051475;28;20782;-73
2020/12/24 03:16:17;;;;;;;14.68;2.60;;;10.10;43.60;;;;;;5051655;28;20811;-72
2020/12/24 03:18:43;;;;;;;7.43;2.20;;;10.10;44.50;;;;;;5051356;28;20391;-73
2020/12/24 03:21:08;;;;;;;10.50;2.20;;;10.10;44.40;;;;;;5050671;28;20392;-74
2020/12/24 03:23:34;;;;;;;14.90;2.47;;;10.10;44.00;;;;;;5050994;28;20443;-74
2020/12/24 03:25:59;;;;;;;11.67;2.70;;;10.00;45.30;;;;;;5051324;28;20390;-74
2020/12/24 03:28:25;;;;;;;12.40;2.30;;;10.00;46.00;;;;;;5051059;28;20388;-74
2020/12/24 03:30:50;;;;;;;12.13;1.80;;;10.00;45.20;;;;;;5051180;28;20390;-73
2020/12/24 03:33:16;;;;;;;11.33;2.37;;;10.00;45.70;;;;;;5051516;28;20390;-73
2020/12/24 03:35:41;;;;;;;9.53;2.50;;;10.00;45.90;;;;;;5053931;28;20405;-74
2020/12/24 03:38:08;;;;;;;8.50;2.00;;;9.90;45.80;;;;;;5053919;28;20483;-74
2020/12/24 03:40:33;;;;;;;11.00;2.50;;;10.00;46.00;;;;;;5054332;28;20413;-73
2020/12/24 03:42:59;;;;;;;11.57;2.40;;;9.90;46.60;;;;;;5054150;28;20420;-73
2020/12/24 03:45:24;;;;;;;8.27;1.80;;;9.90;46.20;;;;;;5054918;28;20439;-74
2020/12/24 03:47:50;;;;;;;11.37;2.00;;;9.90;47.20;;;;;;5036802;28;20402;-73
2020/12/24 03:50:15;;;;;;;9.17;2.00;;;9.90;46.50;;;;;;5054102;28;20794;-74
2020/12/24 03:52:41;;;;;;;11.63;2.40;;;9.90;46.50;;;;;;5054498;28;20425;-74
2020/12/24 03:55:06;;;;;;;9.33;2.07;;;9.90;47.50;;;;;;5054852;28;20890;-73
2020/12/24 03:57:32;;;;;;;9.57;2.30;;;9.80;48.10;;;;;;5053478;28;20764;-73
2020/12/24 03:59:58;;;;;;;10.20;2.37;;;9.80;47.00;;;;;;5051812;28;20758;-73
2020/12/24 04:02:23;;;;;;;10.50;2.70;;;9.80;48.50;;;;;;5051405;28;20508;-74
2020/12/24 04:04:49;;;;;;;11.43;2.33;;;9.80;48.30;;;;;;5051226;28;20400;-74
2020/12/24 04:07:14;;;;;;;9.38;2.22;;;9.80;49.60;;;;;;5050729;28;20382;-74
2020/12/24 04:09:40;;;;;;;9.18;2.10;;;9.70;52.20;;;;;;5050924;28;20835;-74
2020/12/24 04:12:05;;;;;;;9.40;2.10;;;9.60;53.30;;;;;;5050409;28;20708;-75
2020/12/24 04:14:31;;;;;;;15.60;3.05;;;9.60;55.30;;;;;;5051157;28;20381;-73
2020/12/24 04:16:57;;;;;;;12.95;2.42;;;9.60;54.40;;;;;;5050434;28;20879;-72
2020/12/24 04:19:22;;;;;;;14.88;2.85;;;9.60;55.30;;;;;;5050336;28;20875;-74
2020/12/24 04:21:48;;;;;;;10.35;2.40;;;9.50;56.30;;;;;;5050467;28;20429;-73
2020/12/24 04:24:13;;;;;;;9.45;2.40;;;9.50;56.40;;;;;;5050416;28;20439;-75
2020/12/24 04:26:39;;;;;;;9.00;2.50;;;9.50;57.20;;;;;;5050706;28;20381;-74
2020/12/24 04:29:04;;;;;;;10.75;2.40;;;9.50;56.30;;;;;;5050569;28;20750;-72
2020/12/24 04:31:30;;;;;;;12.20;2.30;;;9.50;56.70;;;;;;5049835;28;20948;-73
2020/12/24 04:33:56;;;;;;;11.97;2.40;;;9.40;57.00;;;;;;5050579;28;20385;-73
2020/12/24 04:36:21;;;;;;;12.03;2.40;;;9.50;55.90;;;;;;5052069;28;20397;-73
2020/12/24 04:38:47;;;;;;;16.93;3.30;;;9.40;57.60;;;;;;5054423;28;20434;-73
2020/12/24 04:41:12;;;;;;;8.13;2.30;;;9.50;55.10;;;;;;5054623;28;20380;-74
2020/12/24 04:43:39;;;;;;;12.77;2.77;;;9.60;56.20;;;;;;5054003;28;20480;-73
2020/12/24 04:46:07;;;;;;;13.55;2.60;;;9.50;56.80;;;;;;5053858;28;20431;-74
2020/12/24 04:48:33;;;;;;;10.32;2.03;;;9.50;56.70;;;;;;5053511;28;20802;-72
2020/12/24 04:51:01;;;;;;;13.35;2.92;;;9.50;56.80;;;;;;5054335;28;20389;-72
2020/12/24 04:53:27;;;;;;;12.40;2.83;;;9.50;57.00;;;;;;5056150;28;20438;-73
2020/12/24 04:55:54;;;;;;;15.50;3.20;;;9.50;57.20;;;;;;5039448;28;20452;-74
2020/12/24 04:58:22;;;;;;;12.85;2.60;;;9.50;59.00;;;;;;5055768;28;20401;-74
2020/12/24 05:00:47;;;;;;;14.37;2.40;;;9.50;58.90;;;;;;5056426;28;20439;-74
2020/12/24 05:03:14;;;;;;;10.07;2.67;;;9.50;58.40;;;;;;5057774;28;20878;-74
2020/12/24 05:05:40;;;;;;;8.45;2.30;;;9.50;58.60;;;;;;5058801;28;20459;-74
2020/12/24 05:08:07;;;;;;;7.15;2.38;;;9.50;58.30;;;;;;5058092;28;20888;-74
2020/12/24 05:10:34;;;;;;;11.32;2.67;;;9.60;58.80;;;;;;5057517;28;20778;-74
2020/12/24 05:13:15;;;;;;;9.25;2.22;;;9.60;58.30;;;;;;5056974;28;20413;-74
2020/12/24 05:15:40;;;;;;;16.52;2.80;;;9.60;58.80;;;;;;5058088;28;20388;-74
2020/12/24 05:18:32;;;;;;;10.63;2.80;;;9.50;59.70;;;;;;5057181;28;20786;-74
2020/12/24 05:20:57;;;;;;;13.07;2.60;;;9.50;60.70;;;;;;5054102;28;20440;-73
2020/12/24 05:23:23;;;;;;;16.90;2.40;;;9.50;61.00;;;;;;5058380;28;20400;-73
2020/12/24 05:25:49;;;;;;;12.67;2.90;;;9.50;60.40;;;;;;5056648;28;20894;-73
2020/12/24 05:28:21;;;;;;;9.95;2.05;;;9.40;62.20;;;;;;5052969;28;20432;-74
2020/12/24 05:30:47;;;;;;;12.57;2.63;;;9.30;63.70;;;;;;5053633;28;20385;-73
2020/12/24 05:33:28;;;;;;;8.48;2.65;;;9.40;63.30;;;;;;5053472;28;20446;-73
2020/12/24 05:36:22;;;;;;;9.20;2.38;;;9.30;63.40;;;;;;5054625;28;20381;-73
2020/12/24 05:38:49;;;;;;;6.30;2.20;;;9.30;63.20;;;;;;5053493;28;20412;-73
2020/12/24 05:41:30;;;;;;;9.05;2.00;;;9.40;62.30;;;;;;5052727;28;20414;-73
2020/12/24 05:43:58;;;;;;;12.77;2.50;;;9.40;61.80;;;;;;5053366;28;20391;-74
2020/12/24 05:46:25;;;;;;;10.27;2.37;;;9.40;62.20;;;;;;5035852;28;20385;-74
2020/12/24 05:48:51;;;;;;;10.48;2.20;;;9.40;62.80;;;;;;5051848;28;20461;-74
2020/12/24 05:51:18;;;;;;;10.70;2.00;;;9.40;62.50;;;;;;5052886;28;20464;-75
2020/12/24 05:53:45;;;;;;;10.23;2.47;;;9.60;60.70;;;;;;5052965;28;20705;-74
2020/12/24 05:56:22;;;;;;;14.47;2.80;;;9.60;60.70;;;;;;5052940;28;20435;-75
2020/12/24 05:58:49;;;;;;;11.23;2.22;;;9.40;62.30;;;;;;5052942;28;20380;-73
2020/12/24 06:01:15;;;;;;;10.40;2.40;;;9.40;62.60;;;;;;5053291;28;20373;-73
2020/12/24 06:04:04;;;;;;;11.38;2.50;;;9.30;63.90;;;;;;5052835;28;20789;-73
2020/12/24 06:06:44;;;;;;;7.80;2.40;;;9.30;64.00;;;;;;5045071;28;20387;-73
2020/12/24 06:09:19;;;;;;;13.40;2.30;;;9.20;63.70;;;;;;5055052;28;20882;-73
2020/12/24 06:11:52;;;;;;;5.10;1.98;;;9.20;63.60;;;;;;5052627;28;20421;-73
2020/12/24 06:14:26;;;;;;;5.68;2.33;;;9.30;63.70;;;;;;5053153;28;20385;-72
2020/12/24 06:16:54;;;;;;;8.75;2.15;;;9.20;63.00;;;;;;5052327;28;20443;-72
2020/12/24 06:19:21;;;;;;;11.10;2.40;;;9.30;61.60;;;;;;5052504;28;20412;-72
2020/12/24 06:21:47;;;;;;;8.40;1.70;;;9.30;62.40;;;;;;5051992;28;20382;-73
2020/12/24 06:24:13;;;;;;;9.32;2.55;;;9.40;61.10;;;;;;5052189;28;20856;-74
2020/12/24 06:26:46;;;;;;;7.43;2.00;;;9.30;62.10;;;;;;5052270;28;20724;-74
2020/12/24 06:29:14;;;;;;;9.77;2.10;;;9.30;62.40;;;;;;5052181;28;20794;-74
2020/12/24 06:31:45;;;;;;;9.18;2.53;;;9.40;61.90;;;;;;5052563;28;20869;-74
2020/12/24 06:34:28;;;;;;;8.40;2.28;;;9.30;62.60;;;;;;5052290;28;20390;-73
2020/12/24 06:36:54;;;;;;;9.35;1.90;;;9.30;64.00;;;;;;5051556;28;20979;-73
2020/12/24 06:39:40;;;;;;;8.30;2.45;;;9.30;63.30;;;;;;5051806;28;20409;-73
2020/12/24 06:42:11;;;;;;;4.90;1.80;;;9.30;63.10;;;;;;5052188;28;20438;-73
2020/12/24 06:44:47;;;;;;;5.53;1.60;;;9.40;62.00;;;;;;5051979;28;20754;-73
2020/12/24 06:47:16;;;;;;;7.47;1.60;;;9.30;61.40;;;;;;5051721;28;20705;-73
2020/12/24 06:49:43;;;;;;;3.72;1.70;;;9.30;62.00;;;;;;5051847;28;20381;-74
2020/12/24 06:52:09;;;;;;;8.15;1.92;;;9.30;63.10;;;;;;5051711;28;20436;-72
2020/12/24 06:54:35;;;;;;;7.20;1.88;;;9.40;61.20;;;;;;5051710;28;20420;-73
2020/12/24 06:57:26;;;;;;;6.90;1.80;;;9.50;60.70;;;;;;5051615;28;20424;-74
2020/12/24 07:00:13;;;;;;;7.00;1.90;;;9.40;62.00;;;;;;5050707;28;20491;-73
2020/12/24 07:02:38;;;;;;;7.82;2.20;;;9.30;63.30;;;;;;5051691;28;20381;-73
2020/12/24 07:05:04;;;;;;;4.47;1.90;;;9.30;63.50;;;;;;5051292;28;20397;-73
2020/12/24 07:07:43;;;;;;;7.47;2.20;;;9.30;62.80;;;;;;5054910;28;20458;-74
2020/12/24 07:10:29;;;;;;;5.95;1.60;;;9.30;61.90;;;;;;5059308;28;20393;-73
2020/12/24 07:12:55;;;;;;;6.95;2.00;;;9.40;61.90;;;;;;5051028;28;20458;-73
2020/12/24 07:15:21;;;;;;;5.43;1.80;;;9.40;62.50;;;;;;5051244;28;20447;-73
2020/12/24 07:17:47;;;;;;;9.77;1.75;;;9.30;63.50;;;;;;5051591;28;20389;-74
2020/12/24 07:20:17;;;;;;;6.95;1.95;;;9.30;61.20;;;;;;5051573;28;20408;-72
2020/12/24 07:22:43;;;;;;;7.78;1.92;;;9.30;63.00;;;;;;5051284;28;20455;-72
2020/12/24 07:25:09;;;;;;;6.33;1.67;;;9.30;62.90;;;;;;5051260;28;20469;-73
2020/12/24 07:27:48;;;;;;;7.35;1.80;;;9.30;62.60;;;;;;5051043;28;20461;-75
2020/12/24 07:30:14;;;;;;;5.13;1.88;;;9.30;63.10;;;;;;5051831;28;20409;-74
2020/12/24 07:32:41;;;;;;;5.90;1.40;;;9.30;64.30;;;;;;5052239;28;20838;-73
2020/12/24 07:35:07;;;;;;;6.13;1.50;;;9.30;64.80;;;;;;5051997;28;20743;-73
2020/12/24 07:37:34;;;;;;;5.80;1.90;;;9.30;63.50;;;;;;5051972;28;20391;-73
2020/12/24 07:40:00;;;;;;;7.72;1.95;;;9.30;63.30;;;;;;5051861;28;20437;-73
2020/12/24 07:42:26;;;;;;;5.78;1.77;;;9.30;64.10;;;;;;5050875;28;20461;-73
2020/12/24 07:44:52;;;;;;;10.57;1.80;;;9.30;64.30;;;;;;5050490;28;20429;-74
2020/12/24 07:47:18;;;;;;;7.65;1.85;;;9.20;65.40;;;;;;5051264;28;20472;-74
2020/12/24 07:49:53;;;;;;;5.85;2.00;;;9.30;65.00;;;;;;5051545;28;20385;-74
2020/12/24 07:52:19;;;;;;;10.15;2.20;;;9.30;65.00;;;;;;5051756;28;20396;-72
2020/12/24 07:54:45;;;;;;;7.20;2.10;;;9.40;63.30;;;;;;5051154;28;20386;-73
2020/12/24 07:57:18;;;;;;;5.25;2.10;;;9.40;63.80;;;;;;5050793;28;20457;-74
2020/12/24 07:59:44;;;;;;;7.65;2.40;;;9.40;64.70;;;;;;5051531;28;20855;-74
2020/12/24 08:02:10;;;;;;;8.63;2.00;;;9.30;65.00;;;;;;5051706;28;20464;-73
2020/12/24 08:04:35;;;;;;;4.25;1.50;;;9.40;64.50;;;;;;5051344;28;20378;-74
2020/12/24 08:07:01;;;;;;;9.57;2.63;;;9.40;64.20;;;;;;5050938;28;20406;-73
2020/12/24 08:09:27;;;;;;;10.88;2.08;;;9.40;64.90;;;;;;5044376;28;20401;-73
2020/12/24 08:11:59;;;;;;;7.75;2.00;;;9.40;65.10;;;;;;5050210;28;20393;-73
2020/12/24 08:14:29;;;;;;;7.20;2.22;;;9.40;66.00;;;;;;5042763;28;20514;-73
2020/12/24 08:17:19;;;;;;;8.88;2.08;;;9.40;66.50;;;;;;5050333;28;20398;-73
2020/12/24 08:19:53;;;;;;;8.30;2.80;;;9.50;65.60;;;;;;5026469;28;20415;-74
2020/12/24 08:22:21;;;;;;;9.87;2.40;;;8.40;83.80;;;;;;5040267;28;20486;-73
2020/12/24 08:24:49;;;;;;;3.73;2.10;;;7.70;89.90;;;;;;5050170;28;20401;-71
2020/12/24 08:27:15;;;;;;;1.20;1.10;;;7.30;92.80;;;;;;5051717;28;20472;-74
2020/12/24 08:29:40;;;;;;;1.92;1.25;;;6.80;88.60;;;;;;5052402;28;20385;-74
2020/12/24 08:32:07;;;;;;;1.70;1.60;;;6.50;87.50;;;;;;5047801;28;20401;-75
2020/12/24 08:34:34;;;;;;;2.70;2.10;;;6.40;90.70;;;;;;5049581;28;20409;-74
2020/12/24 08:36:59;;;;;;;2.85;2.65;;;6.30;90.80;;;;;;5032304;28;20401;-73
2020/12/24 08:39:27;;;;;;;2.75;2.65;;;6.20;90.80;;;;;;5052168;28;20405;-75
2020/12/24 08:41:53;;;;;;;3.83;3.47;;;6.10;88.40;;;;;;5051237;28;20820;-75
2020/12/24 08:44:19;;;;;;;4.57;4.27;;;6.10;88.40;;;;;;5045254;28;20508;-77
2020/12/24 08:46:59;;;;;;;6.33;5.50;;;6.20;90.50;;;;;;5048582;28;20412;-74
2020/12/24 08:49:26;;;;;;;5.85;5.35;;;6.30;91.50;;;;;;5051909;28;20385;-75
2020/12/24 08:52:11;;;;;;;5.10;4.60;;;6.30;87.60;;;;;;5048855;28;20408;-76
2020/12/24 08:54:37;;;;;;;5.18;4.68;;;6.40;87.20;;;;;;5048022;28;20459;-75
2020/12/24 08:57:09;;;;;;;5.00;4.57;;;6.30;82.70;;;;;;5049131;28;20490;-74
2020/12/24 08:59:35;;;;;;;4.60;3.60;;;6.30;79.10;;;;;;5051176;28;20513;-75
2020/12/24 09:02:01;;;;;;;5.00;4.60;;;6.20;76.60;;;;;;5041747;28;20488;-73
2020/12/24 09:04:26;;;;;;;4.68;4.28;;;6.20;79.60;;;;;;5048795;28;20393;-74
2020/12/24 09:06:52;;;;;;;4.20;3.80;;;6.30;78.40;;;;;;5046446;28;20405;-74
2020/12/24 09:09:23;;;;;;;4.53;4.13;;;6.40;77.20;;;;;;5042363;28;20401;-74
2020/12/24 09:11:54;;;;;;;3.13;2.92;;;6.50;76.40;;;;;;5047516;28;20405;-74
2020/12/24 09:14:22;;;;;;;2.90;2.70;;;6.50;74.50;;;;;;5049329;28;20885;-74
2020/12/24 09:16:58;;;;;;;3.07;2.87;;;6.50;74.40;;;;;;5045766;28;20412;-74
2020/12/24 09:19:24;;;;;;;2.22;2.03;;;6.50;75.90;;;;;;5041482;28;20928;-74
2020/12/24 09:21:55;;;;;;;1.80;1.70;;;6.50;72.90;;;;;;5048601;28;20390;-75
2020/12/24 09:24:21;;;;;;;1.60;1.50;;;6.50;72.70;;;;;;5053913;28;20394;-75
2020/12/24 09:26:49;;;;;;;1.70;1.60;;;6.50;71.80;;;;;;5051091;28;20413;-74
2020/12/24 09:29:15;;;;;;;1.50;1.40;;;6.40;72.50;;;;;;5045328;28;20446;-75
2020/12/24 09:31:41;;;;;;;1.48;1.33;;;6.50;72.70;;;;;;5043752;28;20417;-77
2020/12/24 09:34:08;;;;;;;2.40;1.50;;;6.60;71.90;;;;;;5043157;28;20399;-76
2020/12/24 09:36:33;;;;;;;3.50;1.40;;;6.70;71.20;;;;;;5053359;28;20452;-74
2020/12/24 09:38:59;;;;;;;1.20;1.10;;;6.60;69.90;;;;;;5049244;28;20931;-74
2020/12/24 09:41:24;;;;;;;3.85;1.30;;;6.70;68.80;;;;;;5052172;28;20438;-72
2020/12/24 09:43:50;;;;;;;1.02;0.93;;;6.70;69.40;;;;;;5052079;28;20476;-72
2020/12/24 09:46:16;;;;;;;2.00;1.20;;;6.70;70.70;;;;;;5039921;28;20402;-72
2020/12/24 09:48:42;;;;;;;1.20;1.10;;;6.70;71.80;;;;;;5033381;28;20432;-73
2020/12/24 09:51:08;;;;;;;1.03;1.00;;;6.80;67.10;;;;;;5052607;28;20425;-77
2020/12/24 09:53:34;;;;;;;2.28;1.00;;;7.00;67.80;;;;;;5048067;28;20408;-72
2020/12/24 09:56:00;;;;;;;1.80;0.90;;;7.10;62.80;;;;;;5049535;28;20435;-74
2020/12/24 09:58:26;;;;;;;1.20;1.10;;;7.00;63.30;;;;;;5037242;28;20942;-76
2020/12/24 10:00:51;;;;;;;1.30;0.80;;;6.90;63.60;;;;;;5048751;28;20399;-75
2020/12/24 10:03:17;;;;;;;1.60;0.80;;;6.90;64.80;;;;;;5033594;28;20386;-75
2020/12/24 10:05:42;;;;;;;1.00;0.90;;;6.90;63.40;;;;;;5051384;28;20408;-76
2020/12/24 10:08:08;;;;;;;1.20;1.10;;;6.90;65.70;;;;;;5049394;28;20859;-76
2020/12/24 10:10:34;;;;;;;1.07;0.90;;;7.10;62.80;;;;;;5052765;28;20393;-75
2020/12/24 10:12:59;;;;;;;1.70;1.00;;;7.00;60.90;;;;;;5053693;28;20393;-73
2020/12/24 10:15:25;;;;;;;1.30;1.20;;;6.90;63.30;;;;;;5052297;28;20468;-73
2020/12/24 10:17:50;;;;;;;1.50;1.20;;;6.90;64.40;;;;;;5052561;28;20405;-73
2020/12/24 10:20:16;;;;;;;1.60;1.47;;;7.00;66.40;;;;;;5052377;28;20409;-72
2020/12/24 10:22:41;;;;;;;1.90;1.67;;;6.90;66.70;;;;;;5052536;28;20399;-72
2020/12/24 10:25:07;;;;;;;2.10;1.30;;;6.80;66.70;;;;;;5052867;28;20373;-73
2020/12/24 10:27:32;;;;;;;1.52;1.30;;;6.70;68.20;;;;;;5052466;28;20398;-73
2020/12/24 10:29:59;;;;;;;1.23;1.13;;;6.70;68.80;;;;;;5053094;28;20838;-73
2020/12/24 10:32:24;;;;;;;1.30;1.20;;;6.70;68.20;;;;;;5052792;28;20389;-73
2020/12/24 10:34:50;;;;;;;2.22;1.27;;;6.80;66.90;;;;;;5051804;28;20377;-73
2020/12/24 10:37:15;;;;;;;1.20;1.10;;;6.90;66.60;;;;;;5051868;28;20393;-73
2020/12/24 10:39:41;;;;;;;2.13;1.67;;;6.90;64.20;;;;;;5052025;28;20412;-73
2020/12/24 10:42:07;;;;;;;1.80;1.70;;;6.90;64.10;;;;;;5052550;28;20541;-73
2020/12/24 10:44:33;;;;;;;3.53;2.20;;;7.00;63.50;;;;;;5052092;28;20879;-73
2020/12/24 10:46:59;;;;;;;4.50;2.40;;;6.90;66.30;;;;;;5051661;28;20444;-73
2020/12/24 10:49:25;;;;;;;3.00;2.80;;;6.90;64.90;;;;;;5052271;28;20942;-72
2020/12/24 10:51:52;;;;;;;4.13;3.20;;;6.90;65.00;;;;;;5051199;28;20397;-73
2020/12/24 10:54:17;;;;;;;3.70;3.40;;;7.00;63.90;;;;;;5034189;28;20421;-73
2020/12/24 10:56:50;;;;;;;7.70;4.70;;;7.10;64.50;;;;;;5034505;28;20416;-73
2020/12/24 10:59:17;;;;;;;5.70;5.10;;;7.10;62.30;;;;;;5052499;28;20405;-73
2020/12/24 11:01:49;;;;;;;6.50;4.88;;;7.10;62.70;;;;;;5051257;28;20394;-74
2020/12/24 11:04:15;;;;;;;7.13;5.63;;;6.60;61.50;;;;;;5051989;28;20385;-74
2020/12/24 11:06:45;;;;;;;8.40;6.90;;;6.40;65.70;;;;;;5042201;28;20726;-74
2020/12/24 11:09:12;;;;;;;7.28;5.60;;;6.40;67.30;;;;;;5013757;28;20394;-72
2020/12/24 11:11:38;;;;;;;4.70;3.55;;;6.40;65.30;;;;;;5031999;28;20796;-74
2020/12/24 11:14:04;;;;;;;3.80;3.30;;;6.40;64.10;;;;;;5031837;28;20738;-73
2020/12/24 11:16:30;;;;;;;4.32;3.00;;;6.30;64.80;;;;;;5047019;28;20402;-74
2020/12/24 11:18:55;;;;;;;2.83;2.63;;;6.40;66.20;;;;;;5051948;28;21007;-75
2020/12/24 11:21:21;;;;;;;5.63;3.67;;;6.40;63.60;;;;;;5052639;28;20530;-73
2020/12/24 11:23:48;;;;;;;4.82;3.40;;;6.30;64.80;;;;;;5052409;28;20411;-72
2020/12/24 11:26:23;;;;;;;5.75;3.80;;;6.30;65.20;;;;;;5052215;28;20388;-73
2020/12/24 11:28:50;;;;;;;6.10;5.13;;;6.40;63.90;;;;;;5051750;28;20377;-74
2020/12/24 11:31:22;;;;;;;12.35;6.50;;;6.40;63.90;;;;;;5051362;28;20393;-73
2020/12/24 11:33:48;;;;;;;12.90;7.80;;;6.40;65.00;;;;;;5051712;28;20397;-73
2020/12/24 11:36:14;;;;;;;18.17;10.52;;;6.50;65.70;;;;;;5051994;28;20378;-73
2020/12/24 11:38:40;;;;;;;19.77;11.98;;;6.60;65.40;;;;;;5050676;28;20401;-73
2020/12/24 11:41:06;;;;;;;25.00;12.68;;;6.60;66.00;;;;;;5051703;28;20405;-72
2020/12/24 11:43:31;;;;;;;23.27;13.27;;;6.50;68.00;;;;;;5051898;28;20948;-72
2020/12/24 11:45:57;;;;;;;26.50;14.60;;;6.40;70.10;;;;;;5051021;28;20389;-73
2020/12/24 11:48:22;;;;;;;23.03;13.30;;;6.40;74.00;;;;;;5051157;28;20381;-73
2020/12/24 11:50:48;;;;;;;24.07;13.63;;;6.30;75.10;;;;;;5050079;28;20906;-71
2020/12/24 11:53:13;;;;;;;27.40;14.70;;;6.40;76.40;;;;;;5049850;28;20484;-72
2020/12/24 11:55:39;;;;;;;22.97;14.50;;;6.30;73.40;;;;;;5050206;28;20389;-73
2020/12/24 11:58:04;;;;;;;18.90;11.70;;;6.20;76.10;;;;;;5050434;28;20393;-73
2020/12/24 12:00:30;;;;;;;18.30;12.00;;;6.20;77.80;;;;;;5050262;28;20424;-72
2020/12/24 12:02:55;;;;;;;14.77;9.77;;;6.20;77.70;;;;;;5050004;28;20744;-72
2020/12/24 12:05:21;;;;;;;12.60;9.10;;;6.20;77.70;;;;;;5049968;28;20392;-72
2020/12/24 12:07:46;;;;;;;13.30;9.20;;;6.10;77.20;;;;;;5049834;28;20398;-72
2020/12/24 12:10:12;;;;;;;12.63;9.23;;;6.10;83.70;;;;;;5049404;28;20409;-73
2020/12/24 12:12:37;;;;;;;10.43;7.50;;;6.10;82.50;;;;;;5044701;28;20412;-72
2020/12/24 12:15:03;;;;;;;11.02;8.50;;;6.10;80.40;;;;;;5049930;28;20759;-72
2020/12/24 12:17:29;;;;;;;11.15;8.82;;;6.10;81.40;;;;;;5032721;28;20404;-72
2020/12/24 12:19:54;;;;;;;12.47;8.87;;;6.20;80.60;;;;;;5049746;28;20869;-72
2020/12/24 12:22:22;;;;;;;12.50;8.63;;;6.20;80.00;;;;;;5047779;28;20446;-74
2020/12/24 12:24:48;;;;;;;12.00;8.75;;;6.30;78.10;;;;;;5049352;28;20764;-74
2020/12/24 12:27:13;;;;;;;13.77;9.00;;;6.40;78.10;;;;;;5049898;28;20390;-73
2020/12/24 12:29:39;;;;;;;14.93;9.55;;;6.40;76.00;;;;;;5049508;28;20400;-73
2020/12/24 12:32:05;;;;;;;15.48;9.85;;;6.40;75.80;;;;;;5046072;28;20399;-74
2020/12/24 12:34:30;;;;;;;18.50;10.57;;;6.40;76.80;;;;;;5031842;28;20418;-73
2020/12/24 12:36:56;;;;;;;16.03;10.70;;;6.50;77.60;;;;;;5038156;28;20482;-74
2020/12/24 12:39:22;;;;;;;21.83;10.90;;;6.40;76.20;;;;;;5030966;28;20413;-74
2020/12/24 12:41:49;;;;;;;19.30;10.70;;;6.40;76.40;;;;;;5046782;28;20393;-75
2020/12/24 12:44:14;;;;;;;11.45;7.00;;;6.40;77.50;;;;;;5046739;28;20425;-73
2020/12/24 12:46:40;;;;;;;16.50;9.60;;;6.30;77.30;;;;;;5049443;28;20401;-73
2020/12/24 12:49:06;;;;;;;9.60;7.43;;;6.20;80.60;;;;;;5049716;28;20396;-74
2020/12/24 12:51:33;;;;;;;10.32;7.30;;;6.30;80.70;;;;;;5052046;28;20401;-73